Latest Weather Observations for Inner Beacon

IDQ60801

Issued at 5:32 pm EST Tuesday 28 February 2017 (issued every 30 minutes, with the page automatically refreshed every 10 minutes)

About weather observations | Map of weather stations | Latest weather observations for QLD | Other Formats
Station Details ID: 040926 Name: INNER RECIPROCAL MARKER Lat: -27.26 Lon: 153.24 Height: 20.0 m
Data from the previous 72 hours. | See also: Recent months for locations in Queensland
Date/Time
EST
Temp
°C
App
Temp
°C
Dew
Point
°C
Rel
Hum
%
Delta-T
°C
Wind Press
QNH
hPa
Press
MSL
hPa
Rain since
9am
mm
Dir  Spd
km/h
Gust
km/h
Spd
kts
Gust
kts
28/05:00pm - - - - - ESE 30 33 16 18 - - -
28/04:30pm - - - - - ESE 32 37 17 20 - - -
28/04:00pm - - - - - ESE 28 32 15 17 - - -
28/03:30pm - - - - - ESE 28 32 15 17 - - -
28/03:00pm - - - - - ESE 22 28 12 15 - - -
28/02:30pm - - - - - ESE 24 28 13 15 - - -
28/02:00pm - - - - - SE 22 28 12 15 - - -
28/01:30pm - - - - - SE 24 28 13 15 - - -
28/01:00pm - - - - - SSE 22 26 12 14 - - -
28/12:30pm - - - - - SSE 22 26 12 14 - - -
28/12:00pm - - - - - SSE 20 26 11 14 - - -
28/11:30am - - - - - SSE 22 26 12 14 - - -
28/11:00am - - - - - S 24 30 13 16 - - -
28/10:30am - - - - - SSE 24 28 13 15 - - -
28/10:00am - - - - - S 20 24 11 13 - - -
28/09:30am - - - - - S 20 26 11 14 - - -
28/09:00am - - - - - S 24 28 13 15 - - -
28/08:30am - - - - - SSW 24 32 13 17 - - -
28/08:00am - - - - - SSW 24 28 13 15 - - -
28/07:30am - - - - - SSW 26 32 14 17 - - -
28/07:00am - - - - - SSW 26 32 14 17 - - -
28/06:30am - - - - - SSW 26 30 14 16 - - -
28/06:00am - - - - - SSW 26 32 14 17 - - -
28/05:30am - - - - - SSW 26 32 14 17 - - -
28/05:00am - - - - - SSW 28 33 15 18 - - -
28/04:30am - - - - - S 28 32 15 17 - - -
28/04:00am - - - - - S 28 33 15 18 - - -
28/03:30am - - - - - S 30 35 16 19 - - -
28/03:00am - - - - - S 30 35 16 19 - - -
28/02:30am - - - - - S 32 37 17 20 - - -
28/02:00am - - - - - S 32 35 17 19 - - -
28/01:30am - - - - - S 32 35 17 19 - - -
28/01:00am - - - - - S 33 41 18 22 - - -
28/12:30am - - - - - S 32 39 17 21 - - -
28/12:00am - - - - - S 30 39 16 21 - - -
 
Date/Time
EST
Temp
°C
App
Temp
°C
Dew
Point
°C
Rel
Hum
%
Delta-T
°C
Wind Press
QNH
hPa
Press
MSL
hPa
Rain since
9am
mm
Dir  Spd
km/h
Gust
km/h
Spd
kts
Gust
kts
27/11:30pm - - - - - S 33 43 18 23 - - -
27/11:00pm - - - - - S 32 43 17 23 - - -
27/10:30pm - - - - - S 32 37 17 20 - - -
27/10:00pm - - - - - SSE 30 39 16 21 - - -
27/09:30pm - - - - - SSE 32 39 17 21 - - -
27/09:00pm - - - - - SSE 26 32 14 17 - - -
27/08:30pm - - - - - SSE 33 39 18 21 - - -
27/08:00pm - - - - - SE 35 43 19 23 - - -
27/07:30pm - - - - - SE 43 57 23 31 - - -
27/07:00pm - - - - - SSE 41 48 22 26 - - -
27/06:30pm - - - - - SSE 39 46 21 25 - - -
27/06:00pm - - - - - SSE 37 44 20 24 - - -
27/05:30pm - - - - - SSE 35 39 19 21 - - -
27/05:00pm - - - - - SSE 35 41 19 22 - - -
27/04:30pm - - - - - SSE 35 43 19 23 - - -
27/04:00pm - - - - - SSE 32 39 17 21 - - -
27/03:30pm - - - - - SE 33 39 18 21 - - -
27/03:00pm - - - - - SSE 35 39 19 21 - - -
27/02:30pm - - - - - SSE 37 44 20 24 - - -
27/02:00pm - - - - - SSE 41 48 22 26 - - -
27/01:30pm - - - - - SSE 33 37 18 20 - - -
27/01:00pm - - - - - SSE 28 32 15 17 - - -
27/12:30pm - - - - - SE 22 26 12 14 - - -
27/12:00pm - - - - - ESE 24 28 13 15 - - -
27/11:30am - - - - - ESE 30 39 16 21 - - -
27/11:00am - - - - - SE 24 39 13 21 - - -
27/10:30am - - - - - ESE 22 28 12 15 - - -
27/10:00am - - - - - SE 26 43 14 23 - - -
27/09:30am - - - - - SSE 30 35 16 19 - - -
27/09:00am - - - - - SSE 24 32 13 17 - - -
27/08:30am - - - - - SE 33 41 18 22 - - -
27/08:00am - - - - - SE 26 33 14 18 - - -
27/07:30am - - - - - SE 28 33 15 18 - - -
27/07:00am - - - - - SSE 30 35 16 19 - - -
27/06:30am - - - - - SSE 30 33 16 18 - - -
27/06:00am - - - - - SSE 37 46 20 25 - - -
27/05:30am - - - - - SSE 35 39 19 21 - - -
27/05:19am - - - - - SSE 37 43 20 23 - - -
27/05:00am - - - - - SSE 19 24 10 13 - - -
27/04:30am - - - - - S 26 33 14 18 - - -
27/04:00am - - - - - SSW 26 30 14 16 - - -
27/03:30am - - - - - S 24 32 13 17 - - -
27/03:00am - - - - - S 24 30 13 16 - - -
27/02:30am - - - - - S 28 33 15 18 - - -
27/02:00am - - - - - S 28 35 15 19 - - -
27/01:30am - - - - - S 28 37 15 20 - - -
27/01:00am - - - - - S 32 39 17 21 - - -
27/12:30am - - - - - S 30 33 16 18 - - -
27/12:00am - - - - - SSE 35 43 19 23 - - -
 
Date/Time
EST
Temp
°C
App
Temp
°C
Dew
Point
°C
Rel
Hum
%
Delta-T
°C
Wind Press
QNH
hPa
Press
MSL
hPa
Rain since
9am
mm
Dir  Spd
km/h
Gust
km/h
Spd
kts
Gust
kts
26/11:30pm - - - - - SSE 39 48 21 26 - - -
26/11:00pm - - - - - SSE 37 44 20 24 - - -
26/10:30pm - - - - - SSE 37 48 20 26 - - -
26/10:00pm - - - - - SSE 33 43 18 23 - - -
26/09:30pm - - - - - SSE 35 46 19 25 - - -
26/09:00pm - - - - - SSE 35 43 19 23 - - -
26/08:30pm - - - - - SSE 37 44 20 24 - - -
26/08:00pm - - - - - SSE 33 41 18 22 - - -
26/07:30pm - - - - - SSE 43 52 23 28 - - -
26/07:00pm - - - - - SSE 41 50 22 27 - - -
26/06:30pm - - - - - SSE 41 52 22 28 - - -
26/06:00pm - - - - - SSE 43 54 23 29 - - -
26/05:30pm - - - - - SE 41 54 22 29 - - -
26/05:00pm - - - - - SE 43 50 23 27 - - -
26/04:30pm - - - - - SE 43 50 23 27 - - -
26/04:00pm - - - - - SE 43 48 23 26 - - -
26/03:30pm - - - - - SE 37 44 20 24 - - -
26/03:00pm - - - - - SE 33 41 18 22 - - -
26/02:30pm - - - - - SE 33 41 18 22 - - -
26/02:00pm - - - - - SE 35 41 19 22 - - -
26/01:30pm - - - - - SE 33 41 18 22 - - -
26/01:00pm - - - - - SE 33 39 18 21 - - -
26/12:30pm - - - - - SE 32 39 17 21 - - -
26/12:00pm - - - - - SE 26 33 14 18 - - -
26/11:30am - - - - - SE 32 37 17 20 - - -
26/11:00am - - - - - SSE 33 39 18 21 - - -
26/10:30am - - - - - SSE 35 41 19 22 - - -
26/10:00am - - - - - SSE 33 39 18 21 - - -
26/09:30am - - - - - SSE 33 41 18 22 - - -
26/09:00am - - - - - SSE 32 39 17 21 - - -
26/08:30am - - - - - S 26 30 14 16 - - -
26/08:00am - - - - - SSE 30 39 16 21 - - -
26/07:30am - - - - - S 32 37 17 20 - - -
26/07:00am - - - - - S 30 37 16 20 - - -
26/06:30am - - - - - S 26 30 14 16 - - -
26/06:00am - - - - - S 28 32 15 17 - - -
26/05:30am - - - - - S 26 30 14 16 - - -
26/05:00am - - - - - S 26 30 14 16 - - -
26/04:30am - - - - - S 24 28 13 15 - - -
26/04:00am - - - - - S 28 33 15 18 - - -
26/03:30am - - - - - S 32 37 17 20 - - -
26/03:00am - - - - - S 32 35 17 19 - - -
26/02:30am - - - - - S 32 35 17 19 - - -
26/02:00am - - - - - S 26 30 14 16 - - -
26/01:30am - - - - - S 26 32 14 17 - - -
26/01:00am - - - - - S 32 35 17 19 - - -
26/12:30am - - - - - S 32 37 17 20 - - -
26/12:00am - - - - - S 32 37 17 20 - - -
 
Date/Time
EST
Temp
°C
App
Temp
°C
Dew
Point
°C
Rel
Hum
%
Delta-T
°C
Wind Press
QNH
hPa
Press
MSL
hPa
Rain since
9am
mm
Dir  Spd
km/h
Gust
km/h
Spd
kts
Gust
kts
25/11:30pm - - - - - S 32 37 17 20 - - -
25/11:00pm - - - - - S 33 37 18 20 - - -
25/10:30pm - - - - - SSE 33 43 18 23 - - -
25/10:00pm - - - - - SSE 39 46 21 25 - - -
25/09:30pm - - - - - SSE 43 50 23 27 - - -
25/09:00pm - - - - - SSE 43 52 23 28 - - -
25/08:30pm - - - - - SSE 44 52 24 28 - - -
25/08:00pm - - - - - SE 46 56 25 30 - - -
25/07:30pm - - - - - SE 48 56 26 30 - - -
25/07:00pm - - - - - SE 44 52 24 28 - - -
25/06:30pm - - - - - SE 41 48 22 26 - - -
25/06:00pm - - - - - SE 39 48 21 26 - - -

Other Formats:

Comma delimited format used in spreadsheet applications
http://www.bom.gov.au/fwo/IDQ60801/IDQ60801.94590.axf

JavaScript Object Notation format (JSON) in row-major order
http://www.bom.gov.au/fwo/IDQ60801/IDQ60801.94590.json